Happy Valentine's Day! 

Flight Track Log - Related Links

Times and Time Zones

All times are in EST time to prevent confusion due to time zone crossing. See the N244A flight status page for this flight to view local times or setup timezone preferences in your user account.


Time Position Orientation Groundspeed Altitude Reporting Facility
EST Latitude Longitude Course Direction KTS MPH feet Rate Location/Type
Fri 07:39:31 PM 31.2297 -81.3086 16° North 326 375 2,500  Level Jacksonville Center
Fri 07:40:31 PM 31.2836 -81.2906 16° North 227 261 4,400 3,233 Climbing Jacksonville Center
Fri 07:42:31 PM 31.2753 -81.4561 267° West 241 277 12,200 3,133 Climbing Jacksonville Center
Fri 07:43:31 PM 31.2786 -81.5653 272° West 298 343 13,800 2,100 Climbing Jacksonville Center
Fri 07:44:31 PM 31.2714 -81.6894 266° West 350 403 16,400 2,900 Climbing Jacksonville Center
Fri 07:45:31 PM 31.2600 -81.8111 264° West 375 432 19,600 2,550 Climbing Jacksonville Center
Fri 07:46:31 PM 31.2506 -81.9350 265° West 387 445 21,500 1,650 Climbing Jacksonville Center
Fri 07:47:31 PM 31.2411 -82.0639 265° West 392 451 22,900 1,750 Climbing Jacksonville Center
Fri 07:48:31 PM 31.2292 -82.2000 264° West 412 474 25,000 2,000 Climbing Jacksonville Center
Fri 07:49:31 PM 31.2278 -82.3411 269° West 413 475 26,900 1,150 Climbing Jacksonville Center
Fri 07:50:31 PM 31.2283 -82.4747 270° West 408 470 27,300 1,300 Climbing Jacksonville Center
Fri 07:51:31 PM 31.2286 -82.6011 270° West 408 470 29,500 2,150 Climbing Jacksonville Center
Fri 07:52:31 PM 31.2081 -82.7275 259° West 401 461 31,600 1,550 Climbing Jacksonville Center
Fri 07:53:31 PM 31.1956 -82.8392 263° West 385 443 32,600 850 Climbing Jacksonville Center
Fri 07:54:31 PM 31.1872 -82.9631 266° West 379 436 33,300 700 Climbing Jacksonville Center
Fri 07:55:31 PM 31.1725 -83.0892 262° West 384 442 34,000 350 Climbing Jacksonville Center
Fri 07:56:31 PM 31.1639 -83.2106 265° West 389 448 34,000  Level Jacksonville Center
Fri 07:57:31 PM 31.1572 -83.3344 266° West 389 448 34,000  Level Jacksonville Center
Fri 07:58:31 PM 31.1442 -83.4606 263° West 389 448 34,000  Level Jacksonville Center
Fri 07:59:31 PM 31.1333 -83.5819 264° West 389 448 34,000  Level Jacksonville Center
Fri 08:00:31 PM 31.1219 -83.7106 264° West 389 448 34,000  Level Jacksonville Center
Fri 08:01:31 PM 31.1108 -83.8342 264° West 389 448 34,000  Level Jacksonville Center
Fri 08:02:31 PM 31.0994 -83.9578 264° West 389 448 34,000  Level Jacksonville Center
Fri 08:03:31 PM 31.0900 -84.0619 264° West 389 448 34,000  Level Jacksonville Center
Fri 08:04:31 PM 31.0783 -84.1975 264° West 389 448 34,000  Level Jacksonville Center
Fri 08:05:31 PM 31.0644 -84.3258 263° West 389 448 34,000  Level Jacksonville Center
Fri 08:06:31 PM 31.0525 -84.4519 264° West 389 448 34,000  Level Jacksonville Center
Fri 08:07:31 PM 31.0447 -84.5778 266° West 389 448 34,000  Level Jacksonville Center
Fri 08:08:31 PM 31.0283 -84.7036 261° West 394 453 34,000  Level Jacksonville Center
Fri 08:09:31 PM 31.0181 -84.8294 265° West 399 459 34,000 -50 Level Jacksonville Center
Fri 08:10:31 PM 31.0056 -84.9553 263° West 399 459 33,900 -50 Descending Jacksonville Center
Fri 08:11:31 PM 30.9931 -85.0858 264° West 399 459 33,900  Level Jacksonville Center
Fri 08:12:31 PM 30.9803 -85.2139 263° West 406 467 33,900  Level Jacksonville Center
Fri 08:13:31 PM 30.9675 -85.3419 263° West 406 467 33,900  Level Jacksonville Center
Fri 08:14:31 PM 30.9567 -85.4700 264° West 406 467 33,900  Level Jacksonville Center
Fri 08:15:31 PM 30.9414 -85.5981 262° West 406 467 33,900  Level Jacksonville Center
Fri 08:16:31 PM 30.9281 -85.7283 263° West 411 473 33,900  Level Jacksonville Center
Fri 08:17:31 PM 30.9125 -85.8586 262° West 406 467 33,900  Level Jacksonville Center
Fri 08:18:31 PM 30.8992 -85.9867 263° West 406 467 33,900  Level Jacksonville Center
Fri 08:19:31 PM 30.8878 -86.1119 264° West 406 467 33,900  Level Jacksonville Center
Fri 08:20:31 PM 30.8739 -86.2447 263° West 406 467 33,900  Level Jacksonville Center
Fri 08:21:31 PM 30.8578 -86.3725 262° West 406 467 33,900  Level Jacksonville Center
Fri 08:22:31 PM 30.8461 -86.4953 264° West 406 467 33,900  Level Jacksonville Center
Fri 08:23:31 PM 30.8297 -86.6253 262° West 406 467 33,900 50 Level Jacksonville Center
Fri 08:24:31 PM 30.8214 -86.7628 266° West 406 467 34,000 50 Climbing Jacksonville Center
Fri 08:25:31 PM 30.8133 -86.8883 266° West 406 467 34,000  Level Jacksonville Center
Fri 08:26:31 PM 30.8053 -87.0161 266° West 406 467 34,000  Level Jacksonville Center
Fri 08:27:31 PM 30.7947 -87.1439 265° West 406 467 34,000  Level Jacksonville Center
Fri 08:28:31 PM 30.7842 -87.2714 265° West 406 467 34,000  Level Jacksonville Center
Fri 08:30:34 PM 30.7669 -87.5222 265° West 396 456 34,000  Level Houston Center
Fri 08:31:36 PM 30.7581 -87.6492 265° West 395 455 34,000  Level Houston Center
Fri 08:32:38 PM 30.7464 -87.7919 265° West 396 456 34,000 -48 Level Houston Center
Fri 08:33:40 PM 30.7369 -87.9194 265° West 396 456 33,900 -48 Descending Houston Center
Fri 08:34:42 PM 30.7281 -88.0461 265° West 396 456 33,900  Level Houston Center
Fri 08:35:44 PM 30.7172 -88.1722 264° West 396 456 33,900  Level Houston Center
Fri 08:36:46 PM 30.7078 -88.2986 265° West 396 456 33,900 48 Level Houston Center
Fri 08:37:48 PM 30.6978 -88.4397 265° West 392 451 34,000 48 Climbing Houston Center
Fri 08:38:50 PM 30.6872 -88.5664 264° West 392 451 34,000  Level Houston Center
Fri 08:39:52 PM 30.6758 -88.6917 264° West 390 449 34,000  Level Houston Center
Fri 08:40:54 PM 30.6656 -88.8167 265° West 389 448 34,000 -48 Level Houston Center
Fri 08:41:56 PM 30.6547 -88.9494 265° West 390 449 33,900 -48 Descending Houston Center
Fri 08:42:58 PM 30.6444 -89.0753 265° West 391 450 33,900 48 Level Houston Center
Fri 08:44:00 PM 30.6322 -89.2256 265° West 391 450 34,000  Climbing Houston Center
Fri 08:45:02 PM 30.6219 -89.3522 265° West 394 453 33,900 -48 Descending Houston Center
Fri 08:46:04 PM 30.6122 -89.4764 265° West 392 451 33,900  Level Houston Center
Fri 08:47:06 PM 30.6003 -89.6008 264° West 391 450 33,900  Level Houston Center
Fri 08:48:08 PM 30.5889 -89.7242 264° West 391 450 33,900  Level Houston Center
Fri 08:49:10 PM 30.5756 -89.8717 264° West 391 450 33,900  Level Houston Center
Fri 08:50:12 PM 30.5644 -89.9947 264° West 391 450 33,900  Level Houston Center
Fri 08:51:14 PM 30.5531 -90.1183 264° West 390 449 33,900  Level Houston Center
Fri 08:52:16 PM 30.5406 -90.2428 263° West 390 449 33,900  Level Houston Center
Fri 08:53:18 PM 30.5289 -90.3667 264° West 390 449 33,900  Level Houston Center
Fri 08:54:19 PM 30.5156 -90.5147 264° West 389 448 33,900  Level Houston Center
Fri 08:55:21 PM 30.5031 -90.6392 263° West 389 448 33,900  Level Houston Center
Fri 08:56:23 PM 30.4908 -90.7639 264° West 389 448 33,900  Level Houston Center
Fri 08:57:25 PM 30.4783 -90.8889 263° West 390 449 33,900  Level Houston Center
Fri 08:58:27 PM 30.4656 -91.0131 263° West 390 449 33,900  Level Houston Center
Fri 08:59:29 PM 30.4522 -91.1378 263° West 391 450 33,900  Level Houston Center
Fri 09:00:31 PM 30.4378 -91.2878 264° West 391 450 33,900  Level Houston Center
Fri 09:01:33 PM 30.4242 -91.4125 263° West 391 450 33,900  Level Houston Center
Fri 09:02:34 PM 30.4125 -91.5372 264° West 392 451 33,900  Level Houston Center
Fri 09:03:36 PM 30.3981 -91.6625 262° West 392 451 33,900 48 Level Houston Center
Fri 09:04:38 PM 30.3850 -91.7853 263° West 392 451 34,000 48 Climbing Houston Center
Fri 09:05:40 PM 30.3714 -91.9108 263° West 392 451 34,000  Level Houston Center
Fri 09:06:41 PM 30.3589 -92.0375 264° West 394 453 34,000  Level Houston Center
Fri 09:07:43 PM 30.3419 -92.1875 263° West 394 453 34,000  Level Houston Center
Fri 09:08:45 PM 30.3281 -92.3136 263° West 393 452 34,000  Level Houston Center
Fri 09:09:46 PM 30.3150 -92.4339 263° West 393 452 34,000 -49 Level Houston Center
Fri 09:10:48 PM 30.3014 -92.5592 263° West 394 453 33,900 -48 Descending Houston Center
Fri 09:11:50 PM 30.2867 -92.6847 262° West 394 453 33,900  Level Houston Center
Fri 09:12:51 PM 30.2731 -92.8111 263° West 394 453 33,900  Level Houston Center
Fri 09:13:53 PM 30.2550 -92.9631 262° West 395 455 33,900  Level Houston Center
Fri 09:14:54 PM 30.2397 -93.0889 262° West 395 455 33,900  Level Houston Center
Fri 09:15:56 PM 30.2250 -93.2158 262° West 396 456 33,900  Level Houston Center
Fri 09:16:58 PM 30.2097 -93.3428 262° West 396 456 33,900  Level Houston Center
Fri 09:17:59 PM 30.1953 -93.4714 263° West 396 456 33,900  Level Houston Center
Fri 09:20:02 PM 30.1644 -93.7269 262° West 396 456 33,900  Level Houston Center
Fri 09:21:03 PM 30.1500 -93.8519 262° West 395 455 33,900  Level Houston Center
Fri 09:22:05 PM 30.1342 -93.9772 262° West 394 453 33,900  Level Houston Center
Fri 09:23:06 PM 30.1192 -94.1031 262° West 394 453 33,900  Level Houston Center
Fri 09:24:08 PM 30.1036 -94.2281 262° West 394 453 33,900  Level Houston Center
Fri 09:25:09 PM 30.0833 -94.3772 261° West 394 453 33,900 49 Level Houston Center
Fri 09:26:10 PM 30.0694 -94.4883 262° West 393 452 34,000 49 Climbing Houston Center
Fri 09:27:12 PM 30.0536 -94.6125 262° West 393 452 34,000  Level Houston Center
Fri 09:28:13 PM 30.0375 -94.7372 262° West 393 452 34,000  Level Houston Center
Fri 09:29:15 PM 30.0186 -94.8853 262° West 393 452 34,000  Level Houston Center
Fri 09:30:16 PM 30.0022 -95.0092 261° West 393 452 34,000  Level Houston Center
Fri 09:31:17 PM 29.9864 -95.1328 262° West 393 452 34,000  Level Houston Center
Fri 09:32:19 PM 29.9692 -95.2561 261° West 393 452 34,000  Level Houston Center
Fri 09:33:20 PM 29.9533 -95.3800 262° West 393 452 34,000 -98 Level Houston Center
Fri 09:34:22 PM 29.9247 -95.5006 255° West 394 453 33,800 -1,073 Descending Houston Center
Fri 09:35:23 PM 29.8947 -95.6433 256° West 389 448 31,800 -2,311 Descending Houston Center
Fri 09:36:24 PM 29.8692 -95.7650 256° West 389 448 29,100 -2,390 Descending Houston Center
Fri 09:37:26 PM 29.8433 -95.8894 257° West 398 458 26,900 -1,951 Descending Houston Center
Fri 09:38:27 PM 29.8169 -96.0108 256° West 397 457 25,100 -1,918 Descending Houston Center
Fri 09:39:28 PM 29.7911 -96.1289 256° West 401 461 23,000 -1,951 Descending Houston Center
Fri 09:40:30 PM 29.7856 -96.2647 267° West 426 490 21,100 -1,951 Descending Houston Center
Fri 09:41:31 PM 29.7989 -96.4283 275° West 428 493 19,000 -1,721 Descending Houston Center
Fri 09:42:32 PM 29.8178 -96.5611 279° West 427 491 17,600 -1,561 Descending Houston Center
Fri 09:43:34 PM 29.8869 -96.6661 307° West 417 480 15,800 -1,805 Descending Houston Center
Fri 09:44:35 PM 29.9658 -96.7650 313° West 418 481 13,900 -1,820 Descending Houston Center
Fri 09:45:36 PM 30.0436 -96.8650 312° West 419 482 12,100 -1,073 Descending Houston Center
Fri 09:46:38 PM 30.0817 -96.9761 292° West 371 427 11,700 -1,220 Descending Houston Center
Fri 09:47:39 PM 30.1100 -97.0731 289° West 284 327 9,600 -1,475 Descending Houston Center
Fri 09:48:40 PM 30.1336 -97.1611 287° West 282 325 8,700 -1,171 Descending Houston Center
Fri 09:49:42 PM 30.1578 -97.2475 288° West 281 323 7,200 -829 Descending Houston Center
Fri 09:50:43 PM 30.1897 -97.3331 293° West 284 327 7,000 -295 Descending Houston Center
Fri 09:51:44 PM 30.2247 -97.4153 296° West 284 327 6,600 -780 Descending Houston Center
Fri 09:52:46 PM 30.2597 -97.5008 295° West 284 327 5,400 -1,220 Descending Houston Center
Fri 09:53:47 PM 30.2969 -97.5689 302° West 261 300 4,100 -934 Descending Houston Center
Fri 09:54:48 PM 30.3400 -97.6214 314° West 231 266 3,500 -443 Descending Houston Center
Fri 09:55:49 PM 30.3172 -97.6631 238° Southwest 213 245 3,200 -634 Descending Houston Center
Fri 09:56:51 PM 30.2650 -97.6586 176° South 195 224 2,200 -927 Descending Houston Center
Fri 09:57:52 PM 30.2325 -97.6586 180° South 142 163 1,300 -541 Descending Houston Center
Fri 09:58:53 PM 30.2036 -97.6575 178° South 136 157 1,100 -197 Descending Houston Center

Login

Don't have an account? Register now (free) for customized features, flight alerts, and more!